Lacon, IL

5:21 AM CST on December 15, 2017 (GMT -0600)
Lacon

Weather History for KC75 - February, 2013

Change the Weather History Date:

Friday, February 1, 2013

  Actual Average (KVYS) Record (KVYS)
Temperature  
Mean Temperature 10 °F -  
Max Temperature 20 °F 34 °F 70 °F (1989)
Min Temperature 1 °F 16 °F -9 °F (1979)
Degree Days  
Heating Degree Days 54    
Moisture  
Dew Point 0 °F    
Average Humidity 65    
Maximum Humidity 87    
Minimum Humidity 53    
Precipitation  
Precipitation 0.00 in - - ()
Sea Level Pressure  
Sea Level Pressure 30.32 in    
Wind  
Wind Speed 12 mph (SW)    
Max Wind Speed 20 mph    
Max Gust Speed 26 mph    
Visibility 10 miles    
Events Snow    
Averages and records for this station are not official NWS values.
T = Trace of Precipitation, MM = Missing Value Source: NWS Daily Summary

Daily Weather History Graph

Daily Weather History Graph

Search for Another Location

Airport or City:

Trip Planner

Search our weather history database for the weather conditions in past years. The results will help you decide how hot, cold, wet, or windy it might be!

Date:

Astronomy

Feb. 01, 2013 Rise Set
Actual Time 7:07 AM CST 5:14 PM CST
Civil Twilight 6:38 AM CST 5:43 PM CST
Nautical Twilight 6:05 AM CST 6:16 PM CST
Astronomical Twilight 5:33 AM CST 6:49 PM CST
Moon 11:25 PM CST (2/1) 9:37 AM CST (2/1)
Length of Visible Light 11h 05m
Length of Day
10h 07m
Waning Gibbous, 70% of the Moon is Illuminated
Feb 1
Waning Gibbous
Feb 3
Last Quarter
Feb 10
New
Feb 17
First Quarter
Feb 25
Full

Hourly Weather History & Observations

Time (CST) Temp. Windchill Dew Point Humidity Pressure Visibility Wind Dir Wind Speed Gust Speed Precip Events Conditions
12:15 AM 3.2 °F -17.6 °F -4.2 °F 71% 30.28 in 10.0 mi West 19.6 mph 26.5 mph N/A   Scattered Clouds
12:35 AM 3.2 °F -15.9 °F -4.0 °F 72% 30.29 in 10.0 mi West 16.1 mph 24.2 mph N/A   Clear
12:55 AM 3.2 °F -14.6 °F -4.0 °F 72% 30.30 in 10.0 mi West 13.8 mph - N/A   Scattered Clouds
1:15 AM 2.8 °F -15.7 °F -4.9 °F 70% 30.31 in 10.0 mi West 15.0 mph 26.5 mph N/A   Scattered Clouds
1:35 AM 2.7 °F -14.5 °F -4.9 °F 71% 30.31 in 10.0 mi West 12.7 mph 20.7 mph N/A   Clear
1:55 AM 3.2 °F -13.9 °F -5.8 °F 66% 30.32 in 10.0 mi West 12.7 mph 21.9 mph N/A   Clear
2:15 AM 2.7 °F -13.8 °F -4.0 °F 74% 30.33 in 10.0 mi WSW 11.5 mph 17.3 mph N/A   Scattered Clouds
2:35 AM 2.7 °F -13.8 °F -4.5 °F 72% 30.34 in 10.0 mi West 11.5 mph 18.4 mph N/A   Mostly Cloudy
2:55 AM 2.7 °F -13.8 °F -4.4 °F 73% 30.35 in 7.0 mi West 11.5 mph 18.4 mph N/A   Mostly Cloudy
3:15 AM 2.1 °F -16.6 °F -5.4 °F 71% 30.35 in 10.0 mi West 15.0 mph 23.0 mph N/A   Scattered Clouds
3:35 AM 1.9 °F -15.5 °F -5.8 °F 70% 30.35 in 10.0 mi West 12.7 mph 20.7 mph N/A   Clear
3:55 AM 1.8 °F -14.9 °F -5.8 °F 71% 30.35 in 10.0 mi West 11.5 mph 18.4 mph N/A   Clear
4:15 AM 1.8 °F -14.0 °F -5.8 °F 71% 30.35 in 10.0 mi West 10.4 mph 17.3 mph N/A   Clear
4:35 AM 1.8 °F -14.0 °F -5.1 °F 73% 30.35 in 10.0 mi West 10.4 mph 16.1 mph N/A   Clear
4:55 AM 1.8 °F -15.7 °F -5.1 °F 73% 30.35 in 10.0 mi West 12.7 mph 19.6 mph N/A   Clear
5:15 AM 1.8 °F -15.7 °F -5.1 °F 73% 30.36 in 10.0 mi West 12.7 mph 17.3 mph N/A   Scattered Clouds
5:35 AM 1.8 °F -14.9 °F -4.9 °F 74% 30.36 in 10.0 mi West 11.5 mph 16.1 mph N/A   Scattered Clouds
5:55 AM 1.6 °F -15.1 °F -4.7 °F 75% 30.36 in 10.0 mi West 11.5 mph - N/A   Clear
6:15 AM 1.4 °F -13.5 °F -4.7 °F 76% 30.37 in 10.0 mi West 9.2 mph - N/A   Clear
6:35 AM 1.8 °F -14.0 °F -5.1 °F 73% 30.38 in 10.0 mi West 10.4 mph 16.1 mph N/A   Scattered Clouds
6:55 AM 1.4 °F -16.1 °F -5.6 °F 72% 30.38 in 10.0 mi West 12.7 mph 17.3 mph N/A   Clear
7:15 AM 1.2 °F -13.7 °F -5.3 °F 74% 30.39 in 10.0 mi West 9.2 mph 16.1 mph N/A   Clear
7:35 AM 1.2 °F -14.7 °F -5.6 °F 73% 30.38 in 10.0 mi West 10.4 mph - N/A   Scattered Clouds
7:55 AM 1.4 °F -14.5 °F -5.8 °F 72% 30.38 in 10.0 mi West 10.4 mph - N/A   Clear
8:15 AM 2.7 °F -12.0 °F -4.9 °F 71% 30.41 in 10.0 mi WSW 9.2 mph - N/A   Clear
8:35 AM 2.3 °F -14.2 °F -5.1 °F 71% 30.41 in 10.0 mi West 11.5 mph - N/A   Clear
8:55 AM 3.2 °F -12.2 °F -4.0 °F 72% 30.41 in 7.0 mi SW 10.4 mph - N/A   Scattered Clouds
9:15 AM 3.9 °F -12.2 °F -4.5 °F 68% 30.41 in 10.0 mi SW 11.5 mph - N/A   Scattered Clouds
9:35 AM 4.8 °F -10.2 °F -3.8 °F 68% 30.42 in 10.0 mi WSW 10.4 mph - N/A   Clear
9:55 AM 4.8 °F -11.1 °F -4.9 °F 64% 30.42 in 10.0 mi WSW 11.5 mph 17.3 mph N/A   Scattered Clouds
10:15 AM 5.4 °F -9.6 °F -3.8 °F 66% 30.41 in 10.0 mi SW 10.4 mph - N/A   Scattered Clouds
10:35 AM 6.1 °F -9.5 °F -4.2 °F 63% 30.42 in 10.0 mi WSW 11.5 mph - N/A   Scattered Clouds
10:55 AM 8.6 °F -3.7 °F -2.2 °F 62% 30.41 in 10.0 mi West 8.1 mph - N/A   Clear
11:15 AM 7.9 °F -6.4 °F -2.7 °F 62% 30.41 in 10.0 mi WSW 10.4 mph - N/A   Clear
11:35 AM 9.1 °F -4.9 °F -1.5 °F 62% 30.41 in 10.0 mi SW 10.4 mph - N/A   Scattered Clouds
11:55 AM 9.5 °F -1.5 °F -1.3 °F 62% 30.40 in 10.0 mi WSW 6.9 mph - N/A   Scattered Clouds
12:15 PM 10.9 °F -2.6 °F -0.0 °F 61% 30.39 in 10.0 mi SW 10.4 mph - N/A   Scattered Clouds
12:35 PM 10.9 °F -2.6 °F -0.4 °F 60% 30.38 in 10.0 mi SSW 10.4 mph - N/A   Mostly Cloudy
12:55 PM 11.5 °F 0.9 °F -0.2 °F 59% 30.37 in 10.0 mi SSW 6.9 mph - N/A   Scattered Clouds
1:15 PM 13.1 °F 2.8 °F 1.6 °F 60% 30.36 in 10.0 mi SW 6.9 mph - N/A   Unknown
1:35 PM 12.9 °F 2.6 °F 0.5 °F 58% 30.35 in 10.0 mi WSW 6.9 mph - N/A   Clear
1:55 PM 13.5 °F 0.5 °F 0.9 °F 57% 30.33 in 10.0 mi WSW 10.4 mph - N/A   Clear
2:15 PM 14.4 °F 1.6 °F 1.8 °F 57% 30.33 in 10.0 mi SSW 10.4 mph - N/A   Clear
2:35 PM 15.3 °F 2.8 °F 1.9 °F 56% 30.32 in 10.0 mi SSW 10.4 mph - N/A   Clear
2:55 PM 15.4 °F 2.3 °F 1.8 °F 55% 30.32 in 10.0 mi SW 11.5 mph 16.1 mph N/A   Clear
3:15 PM 15.8 °F 6.1 °F 1.8 °F 54% 30.31 in 10.0 mi SW 6.9 mph - N/A   Clear
3:35 PM 16.5 °F 6.9 °F 2.5 °F 54% 30.30 in 10.0 mi SW 6.9 mph - N/A   Clear
3:55 PM 15.8 °F 3.4 °F 1.4 °F 53% 30.31 in 10.0 mi SW 10.4 mph - N/A   Scattered Clouds
4:15 PM 16.2 °F 2.5 °F 3.0 °F 56% 30.31 in 10.0 mi SW 12.7 mph 16.1 mph N/A   Mostly Cloudy
4:35 PM 15.8 °F 5.1 °F 3.2 °F 58% 30.30 in 10.0 mi SSW 8.1 mph - N/A   Overcast
4:55 PM 15.8 °F 7.2 °F 3.2 °F 58% 30.29 in 10.0 mi SSW 5.8 mph - N/A   Overcast
5:15 PM 16.0 °F 6.3 °F 3.7 °F 59% 30.28 in 10.0 mi SW 6.9 mph - N/A   Overcast
5:35 PM 16.2 °F 5.5 °F 3.9 °F 59% 30.28 in 10.0 mi SW 8.1 mph - N/A   Overcast
5:55 PM 16.2 °F 6.5 °F 4.1 °F 59% 30.28 in 10.0 mi SSW 6.9 mph - N/A   Overcast
6:15 PM 16.5 °F 4.3 °F 4.6 °F 60% 30.27 in 10.0 mi SSW 10.4 mph - N/A   Overcast
6:35 PM 16.7 °F 5.3 °F 4.3 °F 58% 30.27 in 10.0 mi SSW 9.2 mph - N/A   Overcast
6:55 PM 16.7 °F 5.3 °F 4.6 °F 59% 30.26 in 10.0 mi SSW 9.2 mph 16.1 mph N/A   Overcast
7:15 PM 17.1 °F 4.3 °F 4.8 °F 59% 30.26 in 10.0 mi SSW 11.5 mph - N/A   Overcast
7:35 PM 17.4 °F 4.7 °F 4.6 °F 57% 30.25 in 10.0 mi SSW 11.5 mph - N/A   Overcast
7:55 PM 17.6 °F 9.3 °F 5.5 °F 59% 30.23 in 10.0 mi South 5.8 mph - N/A   Overcast
8:15 PM 18.0 °F 8.7 °F 5.9 °F 59% 30.22 in 10.0 mi South 6.9 mph - N/A   Overcast
8:35 PM 18.0 °F 8.7 °F 6.4 °F 61% 30.21 in 10.0 mi SSE 6.9 mph - N/A   Overcast
8:55 PM 18.1 °F 8.9 °F 6.3 °F 60% 30.20 in 10.0 mi SSE 6.9 mph - N/A   Overcast
9:15 PM 18.7 °F 7.8 °F 6.3 °F 58% 30.20 in 10.0 mi South 9.2 mph - N/A   Overcast
9:35 PM 19.0 °F 7.5 °F 6.6 °F 59% 30.19 in 10.0 mi South 10.4 mph - N/A   Overcast
9:55 PM 19.4 °F 8.6 °F 7.0 °F 59% 30.18 in 10.0 mi South 9.2 mph - N/A   Overcast
10:15 PM 20.1 °F 11.3 °F 7.7 °F 59% 30.18 in 10.0 mi South 6.9 mph - N/A   Overcast
10:35 PM 20.3 °F 10.6 °F 8.4 °F 60% 30.18 in 10.0 mi South 8.1 mph - N/A   Overcast
10:55 PM 20.3 °F 10.6 °F 11.1 °F 68% 30.17 in 7.0 mi South 8.1 mph - N/A Snow Light Snow
11:15 PM 20.7 °F 11.0 °F 15.1 °F 79% 30.18 in 5.0 mi SSW 8.1 mph - N/A Snow Light Snow
11:35 PM 20.3 °F 9.0 °F 15.4 °F 81% 30.18 in 7.0 mi SSW 10.4 mph - N/A Snow Light Snow
11:55 PM 19.9 °F 8.6 °F 16.7 °F 87% 30.18 in 1.8 mi South 10.4 mph - N/A Snow Light Snow